Time;durP1;ratioP1;P1;durP2;ratioP2;P2;SDS_P1;SDS_P2;PMS_P1;PMS_P2;Temp;Humidity;BMP_temperature;BMP_pressure;BME280_temperature;BME280_humidity;BME280_pressure;Samples;Min_cycle;Max_cycle;Signal;HPM_P1;HPM_P2
2021/01/07 00:01:41;;;;;;;28.37;18.40;;;4.10;86.10;;;;;;4886212;28;86405;-76
2021/01/07 00:04:08;;;;;;;29.80;18.33;;;4.10;86.00;;;;;;4902688;28;87684;-76
2021/01/07 00:06:34;;;;;;;29.57;20.97;;;4.10;86.20;;;;;;4870103;28;91287;-76
2021/01/07 00:09:01;;;;;;;30.23;18.87;;;4.10;86.10;;;;;;4900889;28;88302;-76
2021/01/07 00:11:26;;;;;;;29.47;20.33;;;4.10;86.20;;;;;;4902796;28;87365;-76
2021/01/07 00:13:53;;;;;;;31.87;20.23;;;4.10;86.20;;;;;;4903063;28;87449;-75
2021/01/07 00:16:19;;;;;;;28.87;20.27;;;4.10;86.20;;;;;;4901226;28;90930;-76
2021/01/07 00:18:45;;;;;;;27.23;18.73;;;4.10;86.00;;;;;;4901698;28;87612;-76
2021/01/07 00:21:12;;;;;;;31.90;19.33;;;4.10;86.00;;;;;;4903254;28;87026;-76
2021/01/07 00:23:39;;;;;;;27.97;17.90;;;4.20;86.00;;;;;;4904696;28;88212;-76
2021/01/07 00:26:04;;;;;;;26.47;18.43;;;4.10;85.80;;;;;;4905333;28;87253;-76
2021/01/07 00:28:30;;;;;;;25.03;16.77;;;4.10;86.00;;;;;;4885478;28;86789;-75
2021/01/07 00:30:56;;;;;;;25.67;17.20;;;4.10;86.20;;;;;;4869824;28;86958;-76
2021/01/07 00:33:22;;;;;;;27.77;17.37;;;4.00;86.30;;;;;;4899726;28;92076;-76
2021/01/07 00:35:48;;;;;;;24.37;15.40;;;4.00;86.40;;;;;;4886014;28;88379;-76
2021/01/07 00:38:14;;;;;;;23.83;14.90;;;4.00;86.40;;;;;;4868935;28;87045;-75
2021/01/07 00:40:40;;;;;;;18.87;13.93;;;3.90;87.00;;;;;;4885257;28;87469;-76
2021/01/07 00:43:06;;;;;;;20.00;13.77;;;4.00;86.60;;;;;;4902742;28;88160;-76
2021/01/07 00:45:32;;;;;;;21.17;14.07;;;4.00;86.40;;;;;;4901696;28;87488;-76
2021/01/07 00:47:59;;;;;;;22.83;15.13;;;4.00;86.30;;;;;;4869732;28;87091;-76
2021/01/07 00:50:25;;;;;;;19.03;13.50;;;4.00;86.20;;;;;;4868511;28;88470;-76
2021/01/07 00:52:51;;;;;;;19.73;12.93;;;4.00;85.90;;;;;;4887274;28;91366;-76
2021/01/07 00:55:17;;;;;;;21.77;14.23;;;4.00;86.00;;;;;;4887646;28;90309;-76
2021/01/07 00:57:47;;;;;;;20.73;13.13;;;4.00;85.90;;;;;;4903998;28;88560;-76
2021/01/07 01:00:16;;;;;;;20.20;12.90;;;4.00;86.00;;;;;;4887780;28;87779;-75
2021/01/07 01:02:42;;;;;;;17.17;13.20;;;4.00;86.10;;;;;;4905687;28;88245;-76
2021/01/07 01:05:08;;;;;;;22.13;13.80;;;4.00;86.20;;;;;;4888439;28;87310;-76
2021/01/07 01:07:34;;;;;;;21.90;13.17;;;4.00;86.00;;;;;;4871782;28;87047;-76
2021/01/07 01:10:00;;;;;;;19.03;13.80;;;3.90;86.00;;;;;;4905562;28;87056;-76
2021/01/07 01:12:26;;;;;;;17.20;12.17;;;4.00;86.00;;;;;;4904998;28;88712;-76
2021/01/07 01:14:52;;;;;;;18.07;12.87;;;3.90;86.00;;;;;;4904419;28;90247;-76
2021/01/07 01:17:18;;;;;;;16.37;11.77;;;3.90;86.20;;;;;;4887475;28;86828;-76
2021/01/07 01:19:44;;;;;;;17.73;12.03;;;3.90;86.20;;;;;;4905845;28;87106;-76
2021/01/07 01:22:10;;;;;;;19.90;13.87;;;3.90;86.40;;;;;;4903849;28;92104;-76
2021/01/07 01:24:35;;;;;;;20.30;12.93;;;3.90;86.30;;;;;;4903439;28;92177;-76
2021/01/07 01:27:02;;;;;;;18.67;12.77;;;3.90;86.20;;;;;;4905620;28;86918;-75
2021/01/07 01:29:29;;;;;;;17.37;12.60;;;3.90;86.50;;;;;;4871761;28;87922;-76
2021/01/07 01:31:55;;;;;;;18.50;11.87;;;3.90;86.20;;;;;;4904015;28;91778;-76
2021/01/07 01:34:22;;;;;;;17.60;11.87;;;3.90;86.20;;;;;;4905007;28;87502;-76
2021/01/07 01:36:48;;;;;;;18.03;12.37;;;4.00;86.00;;;;;;4888428;28;87181;-76
2021/01/07 01:39:17;;;;;;;19.07;12.50;;;4.00;85.90;;;;;;4905364;28;86518;-76
2021/01/07 01:41:48;;;;;;;17.87;12.13;;;4.00;85.70;;;;;;4903607;28;91626;-75
2021/01/07 01:44:15;;;;;;;17.43;12.43;;;4.00;85.50;;;;;;4903998;28;90953;-75
2021/01/07 01:46:41;;;;;;;16.00;11.20;;;4.00;85.70;;;;;;4903863;28;87814;-76
2021/01/07 01:49:09;;;;;;;18.10;11.40;;;4.00;85.70;;;;;;4888728;28;88269;-77
2021/01/07 01:51:35;;;;;;;15.13;10.53;;;4.00;85.70;;;;;;4903244;28;91932;-77
2021/01/07 01:54:02;;;;;;;13.53;10.00;;;4.00;85.60;;;;;;4888235;28;89587;-76
2021/01/07 01:56:28;;;;;;;12.33;9.80;;;4.00;85.60;;;;;;4904939;28;86815;-76
2021/01/07 01:58:54;;;;;;;14.47;9.70;;;4.00;85.50;;;;;;4905541;28;87316;-76
2021/01/07 02:01:20;;;;;;;16.40;10.93;;;4.00;85.60;;;;;;4887705;28;91244;-76
2021/01/07 02:03:47;;;;;;;16.03;10.20;;;4.00;85.50;;;;;;4887401;28;90658;-76
2021/01/07 02:06:15;;;;;;;16.50;10.83;;;4.00;85.50;;;;;;4871804;28;86977;-76
2021/01/07 02:08:43;;;;;;;18.57;10.30;;;4.00;85.70;;;;;;4904793;28;87156;-76
2021/01/07 02:11:10;;;;;;;18.87;11.53;;;3.90;85.70;;;;;;4904328;28;89113;-76
2021/01/07 02:13:38;;;;;;;20.37;11.77;;;3.90;85.80;;;;;;4904117;28;88442;-76
2021/01/07 02:16:04;;;;;;;19.93;11.33;;;3.90;86.00;;;;;;4887716;28;87037;-76
2021/01/07 02:18:30;;;;;;;18.43;11.03;;;3.90;86.30;;;;;;4902726;28;87743;-76
2021/01/07 02:20:59;;;;;;;18.10;11.07;;;3.90;86.20;;;;;;4903235;28;89137;-76
2021/01/07 02:23:26;;;;;;;17.27;10.53;;;3.90;86.20;;;;;;4870972;28;91177;-75
2021/01/07 02:25:52;;;;;;;16.03;10.60;;;3.90;86.00;;;;;;4903430;28;87953;-76
2021/01/07 02:28:18;;;;;;;13.13;9.30;;;3.90;86.00;;;;;;4903379;28;87793;-75
2021/01/07 02:30:45;;;;;;;15.73;10.97;;;3.90;86.20;;;;;;4887866;28;91165;-76
2021/01/07 02:33:12;;;;;;;17.53;10.53;;;3.90;86.30;;;;;;4887724;28;91231;-76
2021/01/07 02:35:39;;;;;;;18.30;10.83;;;3.90;86.40;;;;;;4886836;28;87987;-76
2021/01/07 02:38:04;;;;;;;20.73;11.20;;;3.90;86.20;;;;;;4872287;28;87810;-76
2021/01/07 02:40:31;;;;;;;15.77;11.13;;;4.00;86.20;;;;;;4905516;28;87673;-76
2021/01/07 02:42:57;;;;;;;15.10;10.23;;;3.90;85.90;;;;;;4890536;28;88057;-76
2021/01/07 02:45:23;;;;;;;14.57;9.97;;;4.00;86.00;;;;;;4887042;28;86980;-76
2021/01/07 02:47:48;;;;;;;15.03;11.13;;;4.00;85.70;;;;;;4904884;28;87122;-76
2021/01/07 02:50:14;;;;;;;12.97;9.57;;;4.00;85.60;;;;;;4903113;28;91744;-76
2021/01/07 02:52:40;;;;;;;15.10;10.70;;;4.00;85.40;;;;;;4887682;28;90898;-76
2021/01/07 02:55:06;;;;;;;14.27;9.37;;;4.00;85.50;;;;;;4887935;28;86940;-76
2021/01/07 02:57:32;;;;;;;13.80;9.63;;;4.00;85.40;;;;;;4887277;28;87445;-76
2021/01/07 02:59:58;;;;;;;12.00;9.23;;;4.00;85.60;;;;;;4904611;28;89634;-76
2021/01/07 03:02:24;;;;;;;13.63;9.23;;;3.90;85.70;;;;;;4887083;28;88398;-75
2021/01/07 03:04:49;;;;;;;11.17;8.40;;;3.90;85.70;;;;;;4887974;28;87024;-75
2021/01/07 03:07:15;;;;;;;12.37;9.63;;;3.90;85.30;;;;;;4903613;28;87808;-76
2021/01/07 03:09:47;;;;;;;16.17;9.67;;;3.90;85.30;;;;;;4870584;28;91981;-76
2021/01/07 03:12:15;;;;;;;13.82;9.60;;;3.90;85.50;;;;;;4903814;28;91444;-76
2021/01/07 03:14:42;;;;;;;12.80;8.40;;;3.90;85.60;;;;;;4903448;28;86986;-75
2021/01/07 03:17:08;;;;;;;13.00;9.37;;;3.90;85.50;;;;;;4905785;28;86222;-76
2021/01/07 03:19:34;;;;;;;10.80;8.60;;;4.00;86.00;;;;;;4903834;28;90815;-76
2021/01/07 03:22:02;;;;;;;13.80;8.03;;;3.90;85.20;;;;;;4909419;28;88459;-76
2021/01/07 03:24:29;;;;;;;10.57;7.77;;;3.90;85.40;;;;;;4909635;28;87703;-77
2021/01/07 03:26:55;;;;;;;10.67;8.00;;;3.90;85.50;;;;;;4889291;28;87335;-76
2021/01/07 03:29:21;;;;;;;11.40;8.17;;;3.90;85.30;;;;;;4886518;28;91264;-76
2021/01/07 03:31:47;;;;;;;12.90;8.73;;;3.90;85.50;;;;;;4886519;28;88533;-76
2021/01/07 03:34:13;;;;;;;11.10;8.17;;;3.90;85.60;;;;;;4887010;28;87042;-76
2021/01/07 03:36:38;;;;;;;13.70;8.73;;;3.90;85.40;;;;;;4902180;28;87046;-75
2021/01/07 03:39:04;;;;;;;11.17;8.30;;;3.90;85.50;;;;;;4870517;28;91248;-76
2021/01/07 03:41:30;;;;;;;9.33;7.43;;;3.90;85.40;;;;;;4903420;28;87353;-75
2021/01/07 03:43:56;;;;;;;9.70;7.73;;;3.90;85.20;;;;;;4904106;28;87557;-75
2021/01/07 03:46:22;;;;;;;14.27;8.67;;;3.90;85.30;;;;;;4904020;28;87308;-76
2021/01/07 03:48:48;;;;;;;10.77;7.70;;;3.90;85.20;;;;;;4885377;28;92585;-75
2021/01/07 03:51:13;;;;;;;12.77;8.70;;;3.90;85.00;;;;;;4902367;28;88440;-76
2021/01/07 03:53:39;;;;;;;12.10;9.23;;;3.90;84.90;;;;;;4870052;28;87408;-75
2021/01/07 03:56:05;;;;;;;11.37;8.53;;;3.90;84.80;;;;;;4886518;28;87330;-76
2021/01/07 03:58:31;;;;;;;9.43;7.27;;;3.90;84.90;;;;;;4885954;28;87684;-76
2021/01/07 04:00:57;;;;;;;10.93;8.17;;;3.90;84.70;;;;;;4902409;28;89685;-75
2021/01/07 04:03:23;;;;;;;9.53;7.33;;;3.90;84.60;;;;;;4904111;28;86962;-76
2021/01/07 04:05:48;;;;;;;9.63;7.80;;;3.90;84.60;;;;;;4902134;28;87561;-76
2021/01/07 04:08:14;;;;;;;10.90;8.20;;;3.90;84.70;;;;;;4886217;28;92023;-76
2021/01/07 04:10:40;;;;;;;12.10;8.43;;;3.90;84.80;;;;;;4900414;28;90702;-76
2021/01/07 04:13:06;;;;;;;12.20;8.00;;;3.90;84.70;;;;;;4870234;28;87997;-76
2021/01/07 04:15:31;;;;;;;8.53;7.33;;;3.90;84.40;;;;;;4901625;28;87395;-76
2021/01/07 04:17:57;;;;;;;10.87;7.87;;;3.90;84.30;;;;;;4903404;28;87806;-76
2021/01/07 04:20:23;;;;;;;9.13;7.37;;;3.90;84.60;;;;;;4870359;28;91152;-76
2021/01/07 04:22:49;;;;;;;12.23;8.47;;;3.80;84.50;;;;;;4903016;28;86881;-76
2021/01/07 04:25:15;;;;;;;9.73;7.93;;;3.80;84.50;;;;;;4902769;28;87102;-76
2021/01/07 04:27:41;;;;;;;10.30;8.03;;;3.80;84.30;;;;;;4897333;28;87061;-76
2021/01/07 04:30:07;;;;;;;10.13;8.73;;;3.80;84.40;;;;;;4888584;28;90518;-76
2021/01/07 04:32:33;;;;;;;11.37;8.40;;;3.80;84.20;;;;;;4906103;28;86864;-76
2021/01/07 04:34:59;;;;;;;9.57;7.43;;;3.80;84.40;;;;;;4905710;28;87111;-76
2021/01/07 04:37:25;;;;;;;9.30;7.63;;;3.80;84.10;;;;;;4889246;28;89092;-76
2021/01/07 04:39:50;;;;;;;8.83;7.93;;;3.80;84.10;;;;;;4888571;28;92193;-77
2021/01/07 04:42:16;;;;;;;10.50;8.00;;;3.80;84.20;;;;;;4907131;28;86869;-76
2021/01/07 04:44:43;;;;;;;11.77;7.83;;;3.70;84.20;;;;;;4888872;28;87118;-76
2021/01/07 04:47:09;;;;;;;10.07;8.10;;;3.70;84.10;;;;;;4889314;28;91993;-76
2021/01/07 04:49:36;;;;;;;8.57;7.23;;;3.70;84.20;;;;;;4904436;28;91088;-75
2021/01/07 04:52:02;;;;;;;10.33;7.73;;;3.70;84.20;;;;;;4905925;28;87622;-76
2021/01/07 04:54:28;;;;;;;9.47;7.87;;;3.70;84.00;;;;;;4873845;28;87831;-75
2021/01/07 04:56:54;;;;;;;9.07;7.73;;;3.70;84.30;;;;;;4889218;28;91930;-76
2021/01/07 04:59:20;;;;;;;9.73;8.73;;;3.70;84.30;;;;;;4889258;28;90940;-75
2021/01/07 05:01:46;;;;;;;11.17;8.57;;;3.60;84.20;;;;;;4906976;28;88366;-77
2021/01/07 05:04:16;;;;;;;11.40;8.60;;;3.60;84.50;;;;;;4874890;28;87088;-76
2021/01/07 05:06:41;;;;;;;11.37;8.40;;;3.50;84.80;;;;;;4872150;28;90124;-76
2021/01/07 05:09:08;;;;;;;11.47;8.40;;;3.50;85.10;;;;;;4905315;28;87409;-76
2021/01/07 05:11:34;;;;;;;11.03;8.83;;;3.50;85.00;;;;;;4905710;28;86904;-75
2021/01/07 05:14:01;;;;;;;11.43;9.13;;;3.50;84.80;;;;;;4873182;28;87642;-76
2021/01/07 05:16:27;;;;;;;10.53;8.10;;;3.50;85.10;;;;;;4904500;28;91044;-76
2021/01/07 05:18:53;;;;;;;11.30;8.37;;;3.50;85.00;;;;;;4905643;28;87326;-76
2021/01/07 05:21:23;;;;;;;9.73;8.67;;;3.40;85.50;;;;;;4906470;28;86765;-76
2021/01/07 05:23:52;;;;;;;11.97;8.93;;;3.50;85.40;;;;;;4888285;28;87739;-75
2021/01/07 05:26:20;;;;;;;12.13;8.70;;;3.40;85.50;;;;;;4888017;28;88532;-76
2021/01/07 05:28:51;;;;;;;10.10;8.67;;;3.40;85.70;;;;;;4903364;28;89374;-75
2021/01/07 05:31:21;;;;;;;11.48;8.82;;;3.40;86.00;;;;;;4906152;28;86754;-76
2021/01/07 05:33:47;;;;;;;9.40;8.37;;;3.40;86.10;;;;;;4903873;28;88181;-75
2021/01/07 05:36:30;;;;;;;10.87;9.03;;;3.30;86.10;;;;;;4904167;28;91449;-76
2021/01/07 05:39:00;;;;;;;12.07;9.27;;;3.30;86.50;;;;;;4887074;28;87761;-76
2021/01/07 05:41:28;;;;;;;12.30;9.47;;;3.40;86.20;;;;;;4888549;28;87398;-76
2021/01/07 05:44:02;;;;;;;11.77;9.47;;;3.40;86.20;;;;;;4888165;28;86302;-76
2021/01/07 05:46:32;;;;;;;14.97;10.40;;;3.40;86.40;;;;;;4888168;28;91415;-76
2021/01/07 05:48:58;;;;;;;23.83;14.67;;;3.40;86.20;;;;;;4904486;28;88866;-76
2021/01/07 05:51:26;;;;;;;26.00;16.97;;;3.50;85.90;;;;;;4902758;28;88013;-76
2021/01/07 05:53:53;;;;;;;22.77;14.63;;;3.40;85.90;;;;;;4887030;28;87503;-76
2021/01/07 05:56:21;;;;;;;21.07;13.87;;;3.50;85.60;;;;;;4887502;28;91801;-76
2021/01/07 05:58:48;;;;;;;17.17;12.70;;;3.40;85.70;;;;;;4887082;28;87243;-75
2021/01/07 06:01:16;;;;;;;15.13;11.77;;;3.40;86.10;;;;;;4903683;28;86981;-76
2021/01/07 06:03:53;;;;;;;14.53;10.97;;;3.40;86.20;;;;;;4870908;28;87786;-76
2021/01/07 06:06:20;;;;;;;10.93;9.47;;;3.40;86.00;;;;;;4887420;28;91993;-76
2021/01/07 06:08:49;;;;;;;11.70;9.40;;;3.30;86.10;;;;;;4904847;28;88067;-75
2021/01/07 06:11:17;;;;;;;11.43;9.43;;;3.30;86.50;;;;;;4888449;28;87044;-76
2021/01/07 06:13:44;;;;;;;11.67;9.30;;;3.40;86.30;;;;;;4887672;28;86809;-76
2021/01/07 06:16:13;;;;;;;13.83;8.57;;;3.30;86.10;;;;;;4887920;28;89087;-76
2021/01/07 06:18:39;;;;;;;12.20;9.77;;;3.30;86.30;;;;;;4903324;28;90692;-75
2021/01/07 06:21:06;;;;;;;12.77;9.67;;;3.30;86.20;;;;;;4905887;28;86889;-76
2021/01/07 06:23:37;;;;;;;12.60;9.57;;;3.30;86.40;;;;;;4888236;28;88359;-76
2021/01/07 06:26:26;;;;;;;10.70;8.97;;;3.30;86.30;;;;;;4904297;28;87570;-76
2021/01/07 06:28:58;;;;;;;10.20;8.60;;;3.30;86.30;;;;;;4887118;28;92157;-76
2021/01/07 06:31:34;;;;;;;11.45;8.55;;;3.30;86.40;;;;;;4904577;28;86969;-76
2021/01/07 06:34:01;;;;;;;12.60;9.90;;;3.30;86.40;;;;;;4904054;28;88290;-76
2021/01/07 06:36:46;;;;;;;13.77;9.80;;;3.20;86.30;;;;;;4905770;28;88013;-76
2021/01/07 06:39:12;;;;;;;13.57;9.70;;;3.20;86.40;;;;;;4904811;28;88006;-76
2021/01/07 06:41:38;;;;;;;13.07;9.07;;;3.30;86.30;;;;;;4903478;28;87835;-75
2021/01/07 06:44:05;;;;;;;11.83;9.23;;;3.20;86.00;;;;;;4889064;28;87994;-76
2021/01/07 06:46:42;;;;;;;11.60;9.20;;;3.20;86.50;;;;;;4889648;28;88104;-76
2021/01/07 06:49:28;;;;;;;10.27;8.70;;;3.20;86.80;;;;;;4908733;28;87878;-77
2021/01/07 06:51:59;;;;;;;12.20;9.77;;;3.20;86.50;;;;;;4909135;28;87287;-77
2021/01/07 06:54:34;;;;;;;10.40;8.27;;;3.20;86.50;;;;;;4904065;28;88006;-76
2021/01/07 06:57:07;;;;;;;10.67;8.67;;;3.10;86.60;;;;;;4903843;28;87912;-76
2021/01/07 06:59:33;;;;;;;12.60;9.77;;;3.20;86.10;;;;;;4887672;28;91415;-76
2021/01/07 07:02:00;;;;;;;11.13;9.27;;;3.20;86.10;;;;;;4886913;28;86916;-76
2021/01/07 07:04:30;;;;;;;14.57;10.87;;;3.20;86.30;;;;;;4903365;28;87069;-76
2021/01/07 07:07:08;;;;;;;14.03;9.73;;;3.30;86.50;;;;;;4902716;28;89184;-76
2021/01/07 07:09:40;;;;;;;13.20;9.93;;;3.30;86.00;;;;;;4902759;28;91674;-76
2021/01/07 07:12:06;;;;;;;14.70;10.20;;;3.20;86.30;;;;;;4904760;28;86951;-76
2021/01/07 07:14:33;;;;;;;16.77;10.80;;;3.20;86.20;;;;;;4870819;28;87527;-76
2021/01/07 07:17:07;;;;;;;14.57;10.77;;;3.20;86.60;;;;;;4902046;28;91162;-76
2021/01/07 07:19:37;;;;;;;14.10;11.57;;;3.20;86.50;;;;;;4902726;28;90657;-76
2021/01/07 07:22:04;;;;;;;15.27;12.23;;;3.30;86.50;;;;;;4888676;28;86883;-76
2021/01/07 07:24:36;;;;;;;15.07;11.27;;;3.30;86.40;;;;;;4887951;28;87249;-76
2021/01/07 07:27:04;;;;;;;13.60;11.02;;;3.30;86.30;;;;;;4885643;28;87890;-75
2021/01/07 07:29:34;;;;;;;12.23;10.10;;;3.40;86.20;;;;;;4885415;28;91236;-76
2021/01/07 07:32:00;;;;;;;13.67;11.47;;;3.40;86.10;;;;;;4902096;28;87835;-76
2021/01/07 07:34:31;;;;;;;15.43;10.43;;;3.50;86.10;;;;;;4903545;28;87107;-76
2021/01/07 07:36:58;;;;;;;15.90;12.63;;;3.50;86.10;;;;;;4902585;28;88125;-76
2021/01/07 07:39:26;;;;;;;15.13;12.40;;;3.50;85.90;;;;;;4902004;28;89670;-75
2021/01/07 07:42:09;;;;;;;16.83;12.97;;;3.40;86.00;;;;;;4901149;28;87130;-76
2021/01/07 07:44:35;;;;;;;16.70;13.23;;;3.40;86.30;;;;;;4886384;28;88224;-76
2021/01/07 07:47:01;;;;;;;17.27;13.30;;;3.50;86.20;;;;;;4901609;28;88189;-75
2021/01/07 07:49:28;;;;;;;21.37;13.80;;;3.60;85.60;;;;;;4886423;28;88477;-75
2021/01/07 07:51:53;;;;;;;18.37;14.13;;;3.60;85.50;;;;;;4901422;28;86961;-77
2021/01/07 07:54:19;;;;;;;16.87;12.37;;;3.70;85.30;;;;;;4886068;28;88157;-76
2021/01/07 07:56:45;;;;;;;18.03;13.23;;;3.80;85.00;;;;;;4902241;28;88655;-75
2021/01/07 07:59:11;;;;;;;18.07;13.53;;;3.80;84.30;;;;;;4886237;28;92600;-76
2021/01/07 08:01:42;;;;;;;18.47;13.13;;;3.90;84.50;;;;;;4900881;28;87471;-76
2021/01/07 08:04:15;;;;;;;16.13;12.43;;;3.90;84.30;;;;;;4902791;28;86917;-76
2021/01/07 08:06:43;;;;;;;15.60;12.63;;;3.90;83.80;;;;;;4903174;28;88336;-76
2021/01/07 08:09:14;;;;;;;16.13;11.37;;;4.00;83.70;;;;;;4902167;28;88997;-75
2021/01/07 08:11:47;;;;;;;15.37;12.10;;;4.00;83.50;;;;;;4870026;28;87328;-76
2021/01/07 08:14:19;;;;;;;20.23;15.47;;;4.00;83.30;;;;;;4886444;28;86258;-76
2021/01/07 08:16:46;;;;;;;22.40;14.83;;;4.20;82.90;;;;;;4900987;28;91441;-75
2021/01/07 08:19:32;;;;;;;18.50;13.33;;;4.30;82.20;;;;;;4901523;28;91626;-76
2021/01/07 08:21:59;;;;;;;18.13;13.73;;;4.30;82.50;;;;;;4884863;28;88368;-77
2021/01/07 08:24:25;;;;;;;19.13;13.23;;;4.30;81.90;;;;;;4885532;28;87326;-75
2021/01/07 08:27:04;;;;;;;18.03;13.03;;;4.40;81.70;;;;;;4868901;28;90032;-76
2021/01/07 08:29:34;;;;;;;19.07;13.93;;;4.50;81.60;;;;;;4885674;28;87439;-76
2021/01/07 08:32:03;;;;;;;18.70;12.67;;;4.70;80.80;;;;;;4900580;28;87342;-76
2021/01/07 08:34:30;;;;;;;16.30;12.23;;;4.80;79.90;;;;;;4901597;28;88585;-76
2021/01/07 08:37:10;;;;;;;20.03;14.00;;;5.00;79.20;;;;;;4869018;28;90609;-76
2021/01/07 08:39:38;;;;;;;18.07;11.47;;;5.20;78.50;;;;;;4870288;28;91352;-76
2021/01/07 08:42:05;;;;;;;19.60;12.83;;;5.20;77.70;;;;;;4901106;28;87034;-76
2021/01/07 08:44:31;;;;;;;16.90;12.30;;;5.40;78.90;;;;;;4885834;28;87633;-77
2021/01/07 08:46:57;;;;;;;17.07;12.23;;;5.60;76.30;;;;;;4884598;28;89147;-76
2021/01/07 08:49:22;;;;;;;17.47;13.17;;;5.60;75.40;;;;;;4885470;28;89158;-77
2021/01/07 08:51:50;;;;;;;17.73;13.80;;;5.80;75.20;;;;;;4884948;28;86917;-76
2021/01/07 08:54:18;;;;;;;18.83;12.57;;;5.80;74.60;;;;;;4902659;28;87158;-76
2021/01/07 08:56:45;;;;;;;15.77;12.40;;;5.80;74.40;;;;;;4900948;28;90767;-76
2021/01/07 08:59:30;;;;;;;14.37;11.40;;;5.90;73.80;;;;;;4868530;28;89508;-76
2021/01/07 09:02:00;;;;;;;18.53;12.43;;;5.90;73.40;;;;;;4884673;28;87120;-76
2021/01/07 09:04:30;;;;;;;17.07;12.30;;;5.80;73.50;;;;;;4901531;28;87734;-76
2021/01/07 09:07:13;;;;;;;16.00;12.27;;;5.80;74.00;;;;;;4884072;28;91555;-76
2021/01/07 09:09:52;;;;;;;18.30;13.53;;;5.70;74.40;;;;;;4884339;28;87872;-76
2021/01/07 09:12:32;;;;;;;20.13;13.77;;;5.60;74.80;;;;;;4884871;28;88034;-76
2021/01/07 09:15:06;;;;;;;17.93;12.87;;;5.60;74.40;;;;;;4903544;28;87528;-75
2021/01/07 09:17:46;;;;;;;18.93;14.00;;;5.60;74.90;;;;;;4888196;28;91689;-76
2021/01/07 09:20:17;;;;;;;17.57;12.80;;;5.50;74.70;;;;;;4887568;28;87997;-76
2021/01/07 09:22:43;;;;;;;18.70;13.87;;;5.50;75.30;;;;;;4888327;28;86891;-76
2021/01/07 09:25:15;;;;;;;20.93;14.27;;;5.60;75.60;;;;;;4887443;28;88849;-76
2021/01/07 09:27:40;;;;;;;;;;;5.50;74.70;;;;;;4904695;28;90281;-77
2021/01/07 09:30:07;;;;;;;17.67;12.37;;;5.50;75.30;;;;;;4890296;28;87407;-79
2021/01/07 09:32:33;;;;;;;20.30;13.30;;;5.50;75.10;;;;;;4906626;28;86976;-76
2021/01/07 09:34:58;;;;;;;19.57;13.50;;;5.50;75.00;;;;;;4888342;28;87167;-77
2021/01/07 09:37:24;;;;;;;19.37;13.43;;;5.50;75.30;;;;;;4872421;28;90297;-76
2021/01/07 09:39:52;;;;;;;17.20;13.20;;;5.40;75.30;;;;;;4889710;28;90097;-76
2021/01/07 09:42:19;;;;;;;20.40;13.90;;;5.40;75.30;;;;;;4908647;28;86759;-77
2021/01/07 09:44:45;;;;;;;20.53;15.03;;;5.50;75.70;;;;;;4888923;28;87759;-76
2021/01/07 09:47:12;;;;;;;20.07;13.53;;;5.40;75.70;;;;;;4871800;28;91312;-76
2021/01/07 09:49:38;;;;;;;17.57;13.53;;;5.30;75.90;;;;;;4904240;28;90553;-77
2021/01/07 09:52:04;;;;;;;18.93;12.80;;;5.30;76.50;;;;;;4905012;28;86971;-76
2021/01/07 09:54:31;;;;;;;18.50;13.50;;;5.30;76.10;;;;;;4905820;28;86645;-76
2021/01/07 09:56:58;;;;;;;18.03;13.43;;;5.40;76.00;;;;;;4904614;28;88733;-77
2021/01/07 09:59:25;;;;;;;20.73;13.83;;;5.40;75.70;;;;;;4904971;28;87505;-76
2021/01/07 10:01:59;;;;;;;19.33;12.87;;;5.50;74.70;;;;;;4903165;28;87850;-76
2021/01/07 10:04:25;;;;;;;19.43;12.30;;;5.60;74.50;;;;;;4871854;28;87612;-76
2021/01/07 10:06:51;;;;;;;18.20;14.17;;;5.60;73.50;;;;;;4904889;28;88239;-76
2021/01/07 10:09:18;;;;;;;22.13;15.30;;;5.60;74.30;;;;;;4902693;28;87713;-76
2021/01/07 10:11:47;;;;;;;18.60;13.47;;;5.50;74.80;;;;;;4887495;28;86958;-76
2021/01/07 10:14:13;;;;;;;18.43;15.13;;;5.60;74.60;;;;;;4903224;28;87524;-77
2021/01/07 10:16:39;;;;;;;18.17;13.40;;;5.50;74.00;;;;;;4889223;28;91173;-77
2021/01/07 10:19:05;;;;;;;15.47;12.67;;;5.60;74.20;;;;;;4888557;28;91377;-77
2021/01/07 10:21:38;;;;;;;15.17;11.77;;;5.60;73.70;;;;;;4904655;28;86981;-76
2021/01/07 10:24:05;;;;;;;17.73;11.30;;;5.60;73.00;;;;;;4886122;28;87926;-76
2021/01/07 10:26:32;;;;;;;15.47;12.73;;;5.50;74.00;;;;;;4902297;28;92162;-77
2021/01/07 10:28:59;;;;;;;16.23;12.07;;;5.50;74.30;;;;;;4902293;28;91274;-76
2021/01/07 10:31:24;;;;;;;16.63;13.07;;;5.50;73.30;;;;;;4902974;28;86957;-76
2021/01/07 10:33:51;;;;;;;16.67;13.03;;;5.50;73.50;;;;;;4902977;28;87490;-77
2021/01/07 10:36:18;;;;;;;16.13;13.47;;;5.50;74.10;;;;;;4903755;28;88286;-76
2021/01/07 10:38:48;;;;;;;25.40;18.27;;;5.60;74.40;;;;;;4904372;28;87399;-77
2021/01/07 10:41:15;;;;;;;17.43;13.97;;;5.60;74.10;;;;;;4902621;28;86913;-76
2021/01/07 10:43:42;;;;;;;19.13;14.30;;;5.50;73.20;;;;;;4871873;28;86563;-76
2021/01/07 10:46:08;;;;;;;19.97;15.43;;;5.50;73.80;;;;;;4870069;28;89824;-76
2021/01/07 10:48:44;;;;;;;18.77;14.33;;;5.40;74.60;;;;;;4886973;28;90650;-76
2021/01/07 10:51:11;;;;;;;19.97;13.80;;;5.50;73.60;;;;;;4869221;28;88337;-76
2021/01/07 10:54:05;;;;;;;21.00;14.83;;;5.50;73.90;;;;;;4904084;28;87106;-76
2021/01/07 10:56:46;;;;;;;23.57;15.33;;;5.50;73.50;;;;;;4886602;28;91213;-76
2021/01/07 10:59:42;;;;;;;23.77;14.97;;;5.50;72.30;;;;;;4870384;28;88978;-77
2021/01/07 11:02:32;;;;;;;20.60;14.67;;;5.50;72.30;;;;;;4886516;28;87316;-76
2021/01/07 11:05:09;;;;;;;19.37;14.93;;;5.40;71.40;;;;;;4870807;28;87363;-76
2021/01/07 11:08:01;;;;;;;20.43;15.87;;;5.40;72.50;;;;;;4871348;28;91318;-76
2021/01/07 11:10:31;;;;;;;20.73;14.68;;;5.30;72.00;;;;;;4902616;28;91614;-76
2021/01/07 11:13:02;;;;;;;18.23;13.27;;;5.30;70.90;;;;;;4902387;28;86955;-75
2021/01/07 11:15:29;;;;;;;18.25;13.85;;;5.20;71.70;;;;;;4904194;28;86904;-76
2021/01/07 11:18:19;;;;;;;21.40;14.07;;;5.10;72.00;;;;;;4903688;28;89286;-76
2021/01/07 11:20:49;;;;;;;20.43;15.50;;;5.10;72.20;;;;;;4886833;28;91857;-76
2021/01/07 11:23:16;;;;;;;23.50;15.70;;;5.10;72.10;;;;;;4870132;28;87279;-76
2021/01/07 11:25:46;;;;;;;25.47;16.17;;;5.10;72.90;;;;;;4870878;28;87708;-76
2021/01/07 11:28:15;;;;;;;21.27;15.63;;;5.20;72.70;;;;;;4885723;28;91349;-76
2021/01/07 11:30:42;;;;;;;24.03;16.83;;;5.10;71.60;;;;;;4903776;28;88119;-76
2021/01/07 11:33:08;;;;;;;24.57;16.57;;;5.10;72.50;;;;;;4869939;28;87417;-76
2021/01/07 11:35:34;;;;;;;24.37;16.50;;;5.10;73.10;;;;;;4904522;28;86305;-77
2021/01/07 11:38:03;;;;;;;21.77;14.17;;;5.20;72.40;;;;;;4900933;28;91447;-75
2021/01/07 11:40:48;;;;;;;24.43;16.10;;;5.20;72.50;;;;;;4886067;28;90711;-76
2021/01/07 11:43:38;;;;;;;23.37;15.80;;;5.30;72.40;;;;;;4870328;28;89267;-76
2021/01/07 11:46:06;;;;;;;21.40;14.77;;;5.30;72.30;;;;;;4886620;28;87028;-76
2021/01/07 11:48:34;;;;;;;20.87;15.20;;;5.40;72.10;;;;;;4886867;28;88264;-77
2021/01/07 11:51:06;;;;;;;25.83;15.67;;;5.40;72.20;;;;;;4886702;28;87488;-75
2021/01/07 11:53:33;;;;;;;24.45;16.10;;;5.50;72.40;;;;;;4902717;28;86934;-76
2021/01/07 11:56:01;;;;;;;20.63;14.63;;;5.40;72.30;;;;;;4902460;28;88150;-77
2021/01/07 11:58:27;;;;;;;24.13;15.40;;;5.20;72.60;;;;;;4904207;28;88138;-76
2021/01/07 12:00:55;;;;;;;24.53;15.77;;;5.20;73.00;;;;;;4907371;28;87434;-77
2021/01/07 12:03:28;;;;;;;20.93;14.70;;;5.20;73.80;;;;;;4908147;28;86749;-77
2021/01/07 12:05:56;;;;;;;22.20;14.03;;;5.20;74.40;;;;;;4886229;28;88114;-76
2021/01/07 12:08:29;;;;;;;19.53;13.30;;;5.20;74.30;;;;;;4900911;28;88491;-76
2021/01/07 12:10:58;;;;;;;17.87;13.40;;;5.20;74.10;;;;;;4902737;28;88343;-76
2021/01/07 12:14:04;;;;;;;19.33;13.37;;;5.10;73.50;;;;;;4901224;28;86965;-76
2021/01/07 12:16:36;;;;;;;19.47;12.27;;;5.10;73.50;;;;;;4883390;28;87027;-76
2021/01/07 12:19:02;;;;;;;18.43;13.30;;;4.90;73.50;;;;;;4902163;28;88272;-76
2021/01/07 12:21:30;;;;;;;16.77;12.23;;;4.90;74.30;;;;;;4901595;28;91766;-76
2021/01/07 12:23:59;;;;;;;16.57;10.87;;;4.90;74.30;;;;;;4901957;28;86916;-76
2021/01/07 12:26:26;;;;;;;16.17;11.77;;;4.90;73.90;;;;;;4885749;28;86999;-76
2021/01/07 12:28:55;;;;;;;16.23;11.53;;;4.70;74.50;;;;;;4901904;28;91510;-76
2021/01/07 12:31:21;;;;;;;17.87;12.30;;;4.70;75.20;;;;;;4868501;28;89185;-76
2021/01/07 12:34:06;;;;;;;15.53;12.30;;;4.70;75.70;;;;;;4901492;28;87901;-76
2021/01/07 12:36:57;;;;;;;15.70;11.87;;;4.70;75.80;;;;;;4903028;28;86882;-76
2021/01/07 12:39:36;;;;;;;18.57;14.13;;;4.70;76.00;;;;;;4901367;28;88651;-76
2021/01/07 12:42:10;;;;;;;18.47;14.13;;;4.70;75.90;;;;;;4885875;28;89654;-76
2021/01/07 12:44:41;;;;;;;21.97;14.50;;;4.80;75.70;;;;;;4902092;28;86905;-76
2021/01/07 12:47:07;;;;;;;17.60;14.03;;;4.90;75.30;;;;;;4902370;28;87193;-75
2021/01/07 12:49:34;;;;;;;16.40;13.47;;;4.90;74.80;;;;;;4888998;28;87670;-77